Latest Weather Observations for Wyndham Airport

IDW60801

Issued at 4:13 pm WST Sunday 15 September 2019 (issued every 10 minutes, with the page automatically refreshed every 10 minutes)

About weather observations | Map of weather stations | Latest weather observations for WA | Other Formats
Station Details ID: 001006 Name: WYNDHAM AERO Lat: -15.51 Lon: 128.15 Height: 3.8 m
Data from the previous 72 hours. | See also: Recent months at Wyndham Airport
Date/Time
WST
Temp
°C
App
Temp
°C
Dew
Point
°C
Rel
Hum
%
Delta-T
°C
Wind Press
QNH
hPa
Press
MSL
hPa
Rain since
9am
mm
Dir  Spd
km/h
Gust
km/h
Spd
kts
Gust
kts
15/04:00pm 32.5 30.4 13.7 32 11.4 NW 17 22 9 12 1012.4 1012.4 0.0
15/03:30pm 32.7 30.7 13.8 31 11.5 NNW 17 26 9 14 1012.3 1012.3 0.0
15/03:00pm 33.4 31.6 14.5 32 11.6 NW 17 26 9 14 1012.2 1012.2 0.0
15/02:30pm 33.3 31.2 15.3 34 11.2 N 20 30 11 16 1012.4 1012.4 0.0
15/02:00pm 33.1 31.1 16.5 37 10.5 NNW 22 30 12 16 1012.5 1012.5 0.0
15/01:30pm 33.3 31.6 16.2 36 10.8 N 20 32 11 17 1012.8 1012.8 0.0
15/01:00pm 33.0 29.9 14.6 33 11.3 N 24 37 13 20 1013.0 1013.0 0.0
15/12:30pm 32.6 28.7 13.3 31 11.6 N 26 35 14 19 1013.4 1013.4 0.0
15/12:00pm 33.4 31.1 14.0 31 11.8 N 19 35 10 19 1013.9 1013.9 0.0
15/11:30am 33.5 32.2 12.5 28 12.5 ENE 11 19 6 10 1014.4 1014.4 0.0
15/11:00am 32.5 31.3 11.6 28 12.2 NE 9 17 5 9 1015.0 1015.0 0.0
15/10:30am 32.0 30.8 12.8 31 11.4 NNE 11 24 6 13 1015.6 1015.6 0.0
15/10:00am 31.4 29.8 12.7 32 11.1 NE 13 20 7 11 1016.2 1016.2 0.0
15/09:30am 30.0 28.2 13.3 36 9.9 NE 15 22 8 12 1016.8 1016.8 0.0
15/09:00am 29.7 29.0 14.3 39 9.3 NNE 11 17 6 9 1016.8 1016.8 0.0
15/08:30am 27.6 27.6 16.2 49 7.0 ENE 11 20 6 11 1017.2 1017.2 0.0
15/08:00am 26.2 25.5 16.4 54 6.0 E 15 20 8 11 1017.3 1017.3 0.0
15/07:30am 25.8 23.8 14.0 48 7.0 ESE 17 22 9 12 1017.0 1017.0 0.0
15/07:00am 24.5 21.5 11.8 45 7.2 E 19 22 10 12 1016.8 1016.8 0.0
15/06:30am 22.3 19.1 11.1 49 6.2 ESE 19 22 10 12 1016.5 1016.5 0.0
15/06:00am 19.7 16.3 10.4 55 5.0 ESE 19 20 10 11 1016.1 1016.1 0.0
15/05:30am 17.9 14.5 9.3 57 4.5 ESE 17 22 9 12 1015.4 1015.4 0.0
15/05:00am 18.3 15.5 9.9 58 4.5 ESE 15 17 8 9 1014.9 1014.9 0.0
15/04:30am 18.0 14.7 9.6 58 4.4 E 17 20 9 11 1014.5 1014.5 0.0
15/04:00am 15.5 13.3 6.2 54 4.5 SE 7 11 4 6 1014.3 1014.3 0.0
15/03:30am 17.3 15.3 6.2 48 5.4 SSE 6 9 3 5 1013.8 1013.8 0.0
15/03:00am 18.5 18.0 7.9 50 5.4 CALM 0 0 0 0 1013.4 1013.4 0.0
15/02:30am 19.4 19.2 9.0 51 5.5 CALM 0 0 0 0 1013.6 1013.6 0.0
15/02:00am 20.1 20.0 9.4 50 5.7 CALM 0 0 0 0 1013.7 1013.7 0.0
15/01:30am 18.7 18.5 8.9 53 5.1 CALM 0 0 0 0 1014.0 1014.0 0.0
15/01:00am 18.4 17.1 7.5 49 5.5 SE 4 9 2 5 1014.0 1014.0 0.0
15/12:30am 17.6 16.5 6.8 49 5.4 SE 2 7 1 4 1014.3 1014.3 0.0
15/12:00am 18.9 17.2 8.3 50 5.5 ESE 7 19 4 10 1014.4 1014.4 0.0
 
Date/Time
WST
Temp
°C
App
Temp
°C
Dew
Point
°C
Rel
Hum
%
Delta-T
°C
Wind Press
QNH
hPa
Press
MSL
hPa
Rain since
9am
mm
Dir  Spd
km/h
Gust
km/h
Spd
kts
Gust
kts
14/11:30pm 19.1 18.3 6.6 44 6.2 CALM 0 6 0 3 1014.6 1014.6 0.0
14/11:00pm 20.8 19.2 7.8 43 6.7 N 6 7 3 4 1014.8 1014.8 0.0
14/10:30pm 21.1 18.9 8.0 43 6.8 N 9 11 5 6 1015.0 1015.0 0.0
14/10:00pm 21.2 19.5 8.5 44 6.7 N 7 15 4 8 1015.0 1015.0 0.0
14/09:30pm 22.0 21.6 8.2 41 7.2 CALM 0 6 0 3 1015.1 1015.1 0.0
14/09:00pm 22.2 20.4 8.0 40 7.4 N 7 7 4 4 1015.2 1015.2 0.0
14/08:30pm 24.1 23.3 9.7 40 7.9 N 4 11 2 6 1015.3 1015.3 0.0
14/08:00pm 23.8 22.2 8.6 38 8.1 N 7 11 4 6 1015.3 1015.3 0.0
14/07:30pm 24.4 23.7 7.1 33 9.0 CALM 0 0 0 0 1015.0 1015.0 0.0
14/07:00pm 27.3 25.7 8.7 31 10.1 N 7 7 4 4 1014.6 1014.6 0.0
14/06:30pm 28.3 26.4 9.1 30 10.6 NNW 9 13 5 7 1014.4 1014.4 0.0
14/06:00pm 29.1 26.1 9.3 29 11.0 NNW 15 17 8 9 1014.1 1014.1 0.0
14/05:30pm 29.7 27.5 9.3 28 11.4 NNW 11 17 6 9 1013.8 1013.8 0.0
14/05:00pm 31.3 28.6 8.9 25 12.5 NNW 13 17 7 9 1013.5 1013.5 0.0
14/04:30pm 32.1 28.8 9.6 25 12.8 NNW 17 20 9 11 1013.3 1013.3 0.0
14/04:00pm 32.5 28.3 9.9 25 12.9 NNW 22 28 12 15 1013.3 1013.3 0.0
14/03:30pm 33.5 30.5 10.8 25 13.2 NNW 17 26 9 14 1013.1 1013.1 0.0
14/03:00pm 32.9 29.4 10.3 25 13.0 N 19 30 10 16 1013.1 1013.1 0.0
14/02:30pm 33.5 31.5 11.4 26 13.0 NNW 13 24 7 13 1013.1 1013.1 0.0
14/02:00pm 33.8 30.7 11.6 26 13.1 N 19 28 10 15 1013.5 1013.5 0.0
14/01:30pm 34.8 29.6 2.3 13 16.6 E 19 28 10 15 1013.8 1013.8 0.0
14/01:00pm 34.0 29.1 1.7 13 16.3 ENE 17 30 9 16 1014.2 1014.2 0.0
14/12:30pm 34.7 29.5 2.3 13 16.6 ENE 19 33 10 18 1014.7 1014.7 0.0
14/12:00pm 34.7 28.1 2.3 13 16.6 ENE 26 41 14 22 1015.2 1015.2 0.0
14/11:30am 34.2 28.1 2.9 14 16.1 E 24 39 13 21 1015.9 1015.9 0.0
14/11:00am 33.9 26.8 1.6 13 16.2 E 28 44 15 24 1016.5 1016.5 0.0
14/10:30am 34.6 28.6 3.2 14 16.3 ENE 24 39 13 21 1017.1 1017.1 0.0
14/10:00am 33.0 25.8 2.9 15 15.4 ENE 30 39 16 21 1017.6 1017.6 0.0
14/09:30am 32.6 25.7 2.6 15 15.2 ENE 28 43 15 23 1018.0 1018.0 0.0
14/09:00am 31.8 25.6 2.0 15 14.9 ENE 24 35 13 19 1018.2 1018.2 0.0
14/08:30am 31.1 23.6 1.4 15 14.6 ENE 30 41 16 22 1018.5 1018.5 0.0
14/08:00am 30.3 23.0 -0.1 14 14.5 ENE 28 37 15 20 1018.6 1018.6 0.0
14/07:30am 29.3 22.1 -1.9 13 14.3 E 26 33 14 18 1018.5 1018.5 0.0
14/07:29am 29.2 22.0 -2.0 13 14.3 E 26 33 14 18 1018.5 1018.5 0.0
14/07:00am 26.0 22.3 -0.1 18 12.0 ESE 9 13 5 7 1018.2 1018.2 0.0
14/06:30am 23.3 19.9 1.6 24 10.2 ESE 9 11 5 6 1017.9 1017.9 0.0
14/06:00am 20.1 17.3 5.0 37 7.4 E 9 13 5 7 1017.5 1017.5 0.0
14/05:30am 15.5 12.4 3.6 45 5.4 E 9 11 5 6 1017.0 1017.0 0.0
14/05:00am 16.8 14.4 5.1 46 5.6 E 7 9 4 5 1016.6 1016.6 0.0
14/04:30am 16.2 13.8 4.3 45 5.6 E 6 7 3 4 1016.3 1016.3 0.0
14/04:00am 17.6 15.0 4.2 41 6.3 E 7 9 4 5 1016.1 1016.1 0.0
14/03:30am 19.8 17.9 7.5 45 6.3 E 7 7 4 4 1015.8 1015.8 0.0
14/03:00am 17.5 15.4 6.7 49 5.3 E 7 9 4 5 1015.5 1015.5 0.0
14/02:30am 21.2 19.3 7.4 41 7.1 E 7 9 4 5 1015.3 1015.3 0.0
14/02:00am 18.4 16.9 9.2 55 4.8 E 7 9 4 5 1015.4 1015.4 0.0
14/01:30am 18.6 17.0 8.6 52 5.2 E 7 9 4 5 1015.6 1015.6 0.0
14/01:00am 19.4 17.3 8.4 49 5.7 E 9 11 5 6 1015.8 1015.8 0.0
14/12:30am 20.1 17.9 9.4 50 5.7 S 11 13 6 7 1015.8 1015.8 0.0
14/12:00am 20.0 17.9 9.6 51 5.5 S 11 11 6 6 1015.9 1015.9 0.0
 
Date/Time
WST
Temp
°C
App
Temp
°C
Dew
Point
°C
Rel
Hum
%
Delta-T
°C
Wind Press
QNH
hPa
Press
MSL
hPa
Rain since
9am
mm
Dir  Spd
km/h
Gust
km/h
Spd
kts
Gust
kts
13/11:30pm 20.6 18.8 10.7 53 5.4 S 11 13 6 7 1016.0 1016.0 0.0
13/11:00pm 19.7 18.2 9.0 50 5.6 S 7 9 4 5 1016.0 1016.0 0.0
13/10:30pm 20.0 19.9 9.6 51 5.5 CALM 0 0 0 0 1016.2 1016.2 0.0
13/10:00pm 20.4 18.4 8.7 47 6.1 S 9 11 5 6 1016.3 1016.3 0.0
13/09:30pm 23.0 21.0 10.1 44 7.0 SSW 11 13 6 7 1016.2 1016.2 0.0
13/09:00pm 23.1 23.1 11.2 47 6.6 SSW 2 7 1 4 1016.2 1016.2 0.0
13/08:30pm 23.5 22.2 9.9 42 7.4 SSW 7 7 4 4 1016.4 1016.4 0.0
13/08:00pm 23.9 21.5 10.2 42 7.5 SSW 13 13 7 7 1016.2 1016.2 0.0
13/07:30pm 24.1 22.4 9.7 40 7.9 SW 9 15 5 8 1015.9 1015.9 0.0
13/07:00pm 24.2 22.4 7.8 35 8.6 NW 7 9 4 5 1015.5 1015.5 0.0
13/06:30pm 26.3 24.8 9.2 34 9.4 NW 7 7 4 4 1015.4 1015.4 0.0
13/06:00pm 27.6 25.9 9.9 33 9.9 NW 9 9 5 5 1015.1 1015.1 0.0
13/05:30pm 28.4 26.4 10.1 32 10.3 NNW 11 15 6 8 1014.7 1014.7 0.0
13/05:00pm 29.9 27.2 10.5 30 11.0 NNW 15 19 8 10 1014.5 1014.5 0.0
13/04:30pm 30.6 27.4 11.1 30 11.2 NW 19 26 10 14 1014.4 1014.4 0.0
13/04:00pm 31.0 27.0 11.9 31 11.2 NW 24 35 13 19 1014.2 1014.2 0.0
13/03:30pm 31.5 27.7 12.3 31 11.3 NNW 24 35 13 19 1014.3 1014.3 0.0
13/03:00pm 32.3 28.1 13.5 32 11.3 N 28 39 15 21 1014.1 1014.1 0.0
13/02:35pm 32.0 27.9 13.7 33 11.1 N 28 46 15 25 1014.0 1014.0 0.0
13/02:30pm 32.6 29.4 14.2 32 11.2 N 24 35 13 19 1014.1 1014.1 0.0
13/02:00pm 34.4 31.6 11.5 25 13.5 N 17 26 9 14 1014.3 1014.3 0.0
13/01:30pm 34.3 29.0 -0.4 11 16.9 ENE 17 28 9 15 1014.7 1014.7 0.0
13/01:00pm 34.3 28.3 -1.7 10 17.2 NE 20 30 11 16 1015.1 1015.1 0.0
13/12:30pm 35.3 28.2 -0.9 10 17.6 E 26 41 14 22 1015.5 1015.5 0.0
13/12:00pm 34.9 28.4 -2.6 9 17.7 ENE 22 37 12 20 1016.1 1016.1 0.0
13/11:30am 35.3 28.4 -2.3 9 17.9 ENE 24 39 13 21 1016.5 1016.5 0.0
13/11:00am 34.5 26.8 -2.9 9 17.5 E 28 35 15 19 1017.1 1017.1 0.0
13/10:30am 34.3 27.3 -3.1 9 17.5 E 24 35 13 19 1017.5 1017.5 0.0
13/10:00am 32.8 25.5 -2.8 10 16.5 E 26 35 14 19 1018.2 1018.2 0.0
13/09:30am 31.6 25.0 -3.7 10 16.0 E 22 33 12 18 1018.5 1018.5 0.0
13/09:00am 31.5 25.2 -3.8 10 15.9 E 20 30 11 16 1018.7 1018.7 0.0
13/08:30am 31.2 24.5 -4.0 10 15.8 E 22 33 12 18 1018.8 1018.8 0.0
13/08:00am 29.5 23.1 -6.7 9 15.3 E 19 28 10 15 1019.0 1019.0 0.0
13/07:30am 28.7 22.3 -7.3 9 15.0 E 19 24 10 13 1018.9 1018.9 0.0
13/07:00am 26.9 22.0 -7.2 10 13.9 E 11 15 6 8 1018.6 1018.6 0.0
13/06:30am 24.5 19.7 -5.7 13 12.4 E 11 15 6 8 1018.2 1018.2 0.0
13/06:11am 22.1 17.1 -4.1 17 10.9 E 13 17 7 9 1018.1 1018.1 0.0
13/06:00am 16.8 12.2 -3.9 24 8.2 E 11 13 6 7 1018.0 1018.0 0.0
13/05:30am 17.9 12.9 -4.7 21 8.9 ENE 13 15 7 8 1017.5 1017.5 0.0
13/05:26am 17.9 12.9 -4.7 21 8.9 ENE 13 15 7 8 1017.5 1017.5 0.0
13/05:00am 12.9 8.2 -4.7 29 6.5 ENE 11 13 6 7 1017.0 1017.0 0.0
13/04:30am 15.3 11.5 -4.1 26 7.5 ENE 7 11 4 6 1016.7 1016.7 0.0
13/04:00am 17.4 13.8 -3.4 24 8.3 ENE 6 7 3 4 1016.6 1016.6 0.0
13/03:30am 14.8 11.2 -4.0 27 7.3 ENE 6 7 3 4 1016.4 1016.4 0.0
13/03:00am 17.1 13.1 -2.5 26 8.0 ENE 9 11 5 6 1016.2 1016.2 0.0
13/02:30am 13.7 9.6 -3.1 31 6.5 ENE 9 11 5 6 1016.2 1016.2 0.0
13/02:00am 14.9 11.2 -3.0 29 7.1 ENE 7 9 4 5 1016.3 1016.3 0.0
13/01:30am 17.1 13.4 -3.1 25 8.1 ENE 7 9 4 5 1016.4 1016.4 0.0
13/01:00am 16.8 14.8 -0.4 31 7.3 CALM 0 0 0 0 1016.4 1016.4 0.0
13/12:30am 19.7 16.4 -0.9 25 8.9 ENE 6 7 3 4 1016.4 1016.4 0.0
13/12:00am 19.5 16.5 0.5 28 8.4 ENE 6 7 3 4 1016.5 1016.5 0.0
 
Date/Time
WST
Temp
°C
App
Temp
°C
Dew
Point
°C
Rel
Hum
%
Delta-T
°C
Wind Press
QNH
hPa
Press
MSL
hPa
Rain since
9am
mm
Dir  Spd
km/h
Gust
km/h
Spd
kts
Gust
kts
12/11:30pm 18.3 16.0 -2.6 24 8.6 CALM 0 0 0 0 1016.6 1016.6 0.0
12/11:00pm 18.9 16.7 -1.5 25 8.6 CALM 0 0 0 0 1016.8 1016.8 0.0
12/10:30pm 21.0 17.3 -4.2 18 10.3 ENE 6 9 3 5 1016.9 1016.9 0.0
12/10:00pm 25.0 20.9 -3.4 15 12.2 ENE 9 9 5 5 1017.0 1017.0 0.0
12/09:30pm 24.2 19.8 -2.4 17 11.6 E 11 11 6 6 1017.1 1017.1 0.0
12/09:00pm 23.7 19.3 -2.8 17 11.4 E 11 13 6 7 1017.2 1017.2 0.0
12/08:30pm 24.2 19.7 -3.2 16 11.8 E 11 11 6 6 1017.1 1017.1 0.0
12/08:00pm 24.5 20.0 -2.9 16 11.9 E 11 13 6 7 1016.9 1016.9 0.0
12/07:30pm 25.4 21.0 -2.2 16 12.2 ESE 11 13 6 7 1016.7 1016.7 0.0
12/07:00pm 25.0 20.6 -2.5 16 12.1 ESE 11 15 6 8 1016.3 1016.3 0.0
12/06:30pm 26.4 20.9 -2.3 15 12.8 SE 17 19 9 10 1015.9 1015.9 0.0
12/06:00pm 26.5 21.3 -3.1 14 13.0 SE 15 15 8 8 1015.6 1015.6 0.0
12/05:30pm 29.2 23.6 -3.1 12 14.5 ESE 17 20 9 11 1015.3 1015.3 0.0
12/05:00pm 31.4 24.1 -2.6 11 15.7 ESE 26 33 14 18 1014.9 1014.9 0.0
12/04:30pm 32.7 26.5 -2.9 10 16.5 ESE 20 30 11 16 1014.6 1014.6 0.0

Other formats

Comma delimited format used in spreadsheet applications
http://www.bom.gov.au/fwo/IDW60801/IDW60801.95214.axf

JavaScript Object Notation format (JSON) in row-major order
http://www.bom.gov.au/fwo/IDW60801/IDW60801.95214.json

Data quality

Most of these data are generated automatically and are frequently updated. Quality checks on data are not normally performed. It is possible for incorrect values to appear. Refer to information at About Latest Weather Observations and please check the disclaimer before using these data.